Terminal Aerodrome Forecast
Issued by NWS

Home | Current Version | Previous Version | Graphics & Text | Print | Product List | Glossary On
Versions: 1 2 3 4 5 6 7 8 9 10 11 12 13 14 15 16 17 18 19 20 21 22 23 24 25 26 27
000
FTUS43 KLSX 271100
TAFCPS
TAF
KCPS 271127Z 2712/2812 35010KT P6SM BKN050
     FM271800 35010KT P6SM SKC
     FM280000 VRB03KT P6SM SKC
     FM280600 VRB03KT P6SM BKN100=

USA.gov is the U.S. government's official web portal to all federal, state and local government web resources and services.